Birmingham, Illinois
Current Conditions -  °F | °C
As of 5:15 AM on Monday 22 Dec 2014 (Local Time) from KMQB Reporting Station
Overcast Overcast  
Wind Chill: 29°   Ceiling: 4600
Heat Index: 37°   Visibility: 7mi
Dew Point: 33°   Wind: 12mph
Humidity: 87%   Direction: 130°SE
Pressure: 29.84"   Gusts: 18mph
Location:  40.2814°N, 90.8526°W
Report Text: KMQB 221115Z AUTO 13010G16KT 7SM BKN046 OVC050 03/01 A2984 RMK AO2 T00250005
Loading
Personal Weather Stations






























Interactive Weather Map New forecast layout! Learn more

10-Day Weather Forecast

Advertisements
Track Severe Weather on mobile